EGAE/LDY METAR and TAF weather

Enter ICAO airport designator
Station Type Date Time Source
EGAE METAR 2019/10/20 19:50 UTC NOAA

EGAE 201950Z 35007KT 9999 SCT035 10/05 Q1022


Station Type Date Time Source
EGAE Decoded METAR 2019/10/20 19:50 UTC NOAA

Eglinton / Londonderr, United Kingdom (EGAE) 55-03N 007-09W
Oct 20, 2019 - 03:50 PM EDT / 2019.10.20 1950 UTC
Wind: from the N (350 degrees) at 8 MPH (7 KT):0
Visibility: greater than 7 mile(s):0
Sky conditions: partly cloudy
Temperature: 50 F (10 C)
Dew Point: 41 F (5 C)
Relative Humidity: 71%
Pressure (altimeter): 30.18 in. Hg (1022 hPa)
ob: EGAE 201950Z 35007KT 9999 SCT035 10/05 Q1022
cycle: 20

Station Type Date Time Source
EGAE TAF UTC NOAA

Error!

Example: see airport list